sensor_id;sensor_type;location;lat;lon;timestamp;P1;durP1;ratioP1;P2;durP2;ratioP2
70106;SDS011;57473;37.508;15.080;2023-03-05T00:01:55;14.13;;;7.50;;
70106;SDS011;57473;37.508;15.080;2023-03-05T00:04:22;12.05;;;6.05;;
70106;SDS011;57473;37.508;15.080;2023-03-05T00:06:50;10.02;;;6.20;;
70106;SDS011;57473;37.508;15.080;2023-03-05T00:09:17;8.10;;;4.78;;
70106;SDS011;57473;37.508;15.080;2023-03-05T00:11:44;9.18;;;5.00;;
70106;SDS011;57473;37.508;15.080;2023-03-05T00:14:12;6.88;;;4.38;;
70106;SDS011;57473;37.508;15.080;2023-03-05T00:16:39;8.50;;;4.07;;
70106;SDS011;57473;37.508;15.080;2023-03-05T00:19:07;8.55;;;3.80;;
70106;SDS011;57473;37.508;15.080;2023-03-05T00:21:36;10.65;;;5.57;;
70106;SDS011;57473;37.508;15.080;2023-03-05T00:24:07;8.43;;;4.70;;
70106;SDS011;57473;37.508;15.080;2023-03-05T00:26:40;8.05;;;4.68;;
70106;SDS011;57473;37.508;15.080;2023-03-05T00:29:08;7.07;;;4.35;;
70106;SDS011;57473;37.508;15.080;2023-03-05T00:31:38;19.20;;;10.05;;
70106;SDS011;57473;37.508;15.080;2023-03-05T00:34:07;11.52;;;6.93;;
70106;SDS011;57473;37.508;15.080;2023-03-05T00:36:44;9.15;;;4.00;;
70106;SDS011;57473;37.508;15.080;2023-03-05T00:39:16;9.27;;;5.57;;
70106;SDS011;57473;37.508;15.080;2023-03-05T00:41:45;6.45;;;3.85;;
70106;SDS011;57473;37.508;15.080;2023-03-05T00:44:12;4.63;;;3.35;;
70106;SDS011;57473;37.508;15.080;2023-03-05T00:46:39;3.70;;;2.65;;
70106;SDS011;57473;37.508;15.080;2023-03-05T00:49:07;5.45;;;3.42;;
70106;SDS011;57473;37.508;15.080;2023-03-05T00:51:34;6.45;;;3.00;;
70106;SDS011;57473;37.508;15.080;2023-03-05T00:54:02;5.25;;;2.83;;
70106;SDS011;57473;37.508;15.080;2023-03-05T00:56:30;3.70;;;2.20;;
70106;SDS011;57473;37.508;15.080;2023-03-05T00:58:57;3.75;;;2.15;;
70106;SDS011;57473;37.508;15.080;2023-03-05T01:01:25;3.63;;;2.03;;
70106;SDS011;57473;37.508;15.080;2023-03-05T01:03:52;2.40;;;1.45;;
70106;SDS011;57473;37.508;15.080;2023-03-05T01:06:25;5.15;;;1.60;;
70106;SDS011;57473;37.508;15.080;2023-03-05T01:08:52;21.05;;;12.43;;
70106;SDS011;57473;37.508;15.080;2023-03-05T01:11:20;3.95;;;1.67;;
70106;SDS011;57473;37.508;15.080;2023-03-05T01:13:47;3.28;;;1.58;;
70106;SDS011;57473;37.508;15.080;2023-03-05T01:16:14;3.78;;;1.50;;
70106;SDS011;57473;37.508;15.080;2023-03-05T01:18:42;2.67;;;1.40;;
70106;SDS011;57473;37.508;15.080;2023-03-05T01:21:09;2.38;;;1.15;;
70106;SDS011;57473;37.508;15.080;2023-03-05T01:23:37;2.67;;;1.20;;
70106;SDS011;57473;37.508;15.080;2023-03-05T01:26:04;2.40;;;1.40;;
70106;SDS011;57473;37.508;15.080;2023-03-05T01:28:32;2.25;;;1.20;;
70106;SDS011;57473;37.508;15.080;2023-03-05T01:30:59;2.78;;;1.40;;
70106;SDS011;57473;37.508;15.080;2023-03-05T01:33:27;1.92;;;1.20;;
70106;SDS011;57473;37.508;15.080;2023-03-05T01:35:54;2.42;;;1.10;;
70106;SDS011;57473;37.508;15.080;2023-03-05T01:38:22;1.65;;;1.00;;
70106;SDS011;57473;37.508;15.080;2023-03-05T01:40:49;2.38;;;1.02;;
70106;SDS011;57473;37.508;15.080;2023-03-05T01:43:25;1.52;;;0.90;;
70106;SDS011;57473;37.508;15.080;2023-03-05T01:48:44;2.67;;;0.80;;
70106;SDS011;57473;37.508;15.080;2023-03-05T01:53:44;1.15;;;0.70;;
70106;SDS011;57473;37.508;15.080;2023-03-05T01:56:12;1.05;;;0.70;;
70106;SDS011;57473;37.508;15.080;2023-03-05T01:58:40;2.28;;;0.80;;
70106;SDS011;57473;37.508;15.080;2023-03-05T02:01:08;1.42;;;0.80;;
70106;SDS011;57473;37.508;15.080;2023-03-05T02:03:35;1.88;;;0.82;;
70106;SDS011;57473;37.508;15.080;2023-03-05T02:06:03;1.85;;;1.08;;
70106;SDS011;57473;37.508;15.080;2023-03-05T02:08:31;1.40;;;0.80;;
70106;SDS011;57473;37.508;15.080;2023-03-05T02:10:58;1.40;;;0.90;;
70106;SDS011;57473;37.508;15.080;2023-03-05T02:13:33;1.83;;;1.00;;
70106;SDS011;57473;37.508;15.080;2023-03-05T02:16:04;1.60;;;0.85;;
70106;SDS011;57473;37.508;15.080;2023-03-05T02:18:32;9.90;;;3.90;;
70106;SDS011;57473;37.508;15.080;2023-03-05T02:21:01;5.95;;;1.88;;
70106;SDS011;57473;37.508;15.080;2023-03-05T02:23:33;2.85;;;1.15;;
70106;SDS011;57473;37.508;15.080;2023-03-05T02:28:34;2.40;;;1.58;;
70106;SDS011;57473;37.508;15.080;2023-03-05T02:31:13;2.13;;;1.60;;
70106;SDS011;57473;37.508;15.080;2023-03-05T02:33:43;2.70;;;1.50;;
70106;SDS011;57473;37.508;15.080;2023-03-05T02:36:12;3.40;;;1.60;;
70106;SDS011;57473;37.508;15.080;2023-03-05T02:38:40;2.75;;;1.50;;
70106;SDS011;57473;37.508;15.080;2023-03-05T02:41:08;3.92;;;1.45;;
70106;SDS011;57473;37.508;15.080;2023-03-05T02:43:36;3.78;;;1.50;;
70106;SDS011;57473;37.508;15.080;2023-03-05T02:46:04;3.38;;;2.00;;
70106;SDS011;57473;37.508;15.080;2023-03-05T02:48:32;4.47;;;2.10;;
70106;SDS011;57473;37.508;15.080;2023-03-05T02:51:00;4.40;;;2.20;;
70106;SDS011;57473;37.508;15.080;2023-03-05T02:53:29;3.15;;;2.00;;
70106;SDS011;57473;37.508;15.080;2023-03-05T02:55:56;3.75;;;1.80;;
70106;SDS011;57473;37.508;15.080;2023-03-05T02:58:25;3.00;;;1.60;;
70106;SDS011;57473;37.508;15.080;2023-03-05T03:00:52;2.83;;;1.33;;
70106;SDS011;57473;37.508;15.080;2023-03-05T03:03:20;3.15;;;1.20;;
70106;SDS011;57473;37.508;15.080;2023-03-05T03:05:47;1.38;;;0.90;;
70106;SDS011;57473;37.508;15.080;2023-03-05T03:08:15;1.55;;;0.90;;
70106;SDS011;57473;37.508;15.080;2023-03-05T03:10:42;1.77;;;0.80;;
70106;SDS011;57473;37.508;15.080;2023-03-05T03:13:09;1.35;;;0.70;;
70106;SDS011;57473;37.508;15.080;2023-03-05T03:15:37;1.17;;;0.75;;
70106;SDS011;57473;37.508;15.080;2023-03-05T03:18:06;0.90;;;0.60;;
70106;SDS011;57473;37.508;15.080;2023-03-05T03:20:33;1.30;;;0.70;;
70106;SDS011;57473;37.508;15.080;2023-03-05T03:23:04;1.17;;;0.70;;
70106;SDS011;57473;37.508;15.080;2023-03-05T03:25:32;0.73;;;0.50;;
70106;SDS011;57473;37.508;15.080;2023-03-05T03:28:00;0.70;;;0.50;;
70106;SDS011;57473;37.508;15.080;2023-03-05T03:30:27;1.02;;;0.60;;
70106;SDS011;57473;37.508;15.080;2023-03-05T03:32:54;1.98;;;0.60;;
70106;SDS011;57473;37.508;15.080;2023-03-05T03:35:22;0.85;;;0.60;;
70106;SDS011;57473;37.508;15.080;2023-03-05T03:37:49;1.42;;;0.80;;
70106;SDS011;57473;37.508;15.080;2023-03-05T03:40:17;2.10;;;0.70;;
70106;SDS011;57473;37.508;15.080;2023-03-05T03:42:44;1.20;;;0.70;;
70106;SDS011;57473;37.508;15.080;2023-03-05T03:45:12;1.38;;;0.65;;
70106;SDS011;57473;37.508;15.080;2023-03-05T03:47:39;1.40;;;0.80;;
70106;SDS011;57473;37.508;15.080;2023-03-05T03:50:07;1.88;;;0.90;;
70106;SDS011;57473;37.508;15.080;2023-03-05T03:52:34;1.88;;;1.10;;
70106;SDS011;57473;37.508;15.080;2023-03-05T03:55:02;1.63;;;1.02;;
70106;SDS011;57473;37.508;15.080;2023-03-05T03:57:30;2.00;;;1.20;;
70106;SDS011;57473;37.508;15.080;2023-03-05T03:59:59;2.78;;;1.17;;
70106;SDS011;57473;37.508;15.080;2023-03-05T04:02:26;2.28;;;1.15;;
70106;SDS011;57473;37.508;15.080;2023-03-05T04:04:54;1.80;;;1.02;;
70106;SDS011;57473;37.508;15.080;2023-03-05T04:07:21;1.45;;;0.88;;
70106;SDS011;57473;37.508;15.080;2023-03-05T04:09:48;2.28;;;1.05;;
70106;SDS011;57473;37.508;15.080;2023-03-05T04:12:16;1.88;;;1.00;;
70106;SDS011;57473;37.508;15.080;2023-03-05T04:14:46;1.65;;;0.90;;
70106;SDS011;57473;37.508;15.080;2023-03-05T04:17:14;2.05;;;1.00;;
70106;SDS011;57473;37.508;15.080;2023-03-05T04:19:42;2.47;;;1.00;;
70106;SDS011;57473;37.508;15.080;2023-03-05T04:22:10;2.03;;;1.00;;
70106;SDS011;57473;37.508;15.080;2023-03-05T04:24:39;1.90;;;1.20;;
70106;SDS011;57473;37.508;15.080;2023-03-05T04:27:07;1.95;;;1.10;;
70106;SDS011;57473;37.508;15.080;2023-03-05T04:29:35;2.10;;;1.20;;
70106;SDS011;57473;37.508;15.080;2023-03-05T04:32:02;1.85;;;1.05;;
70106;SDS011;57473;37.508;15.080;2023-03-05T04:34:30;2.15;;;1.25;;
70106;SDS011;57473;37.508;15.080;2023-03-05T04:36:58;2.13;;;1.20;;
70106;SDS011;57473;37.508;15.080;2023-03-05T04:39:25;2.85;;;1.10;;
70106;SDS011;57473;37.508;15.080;2023-03-05T04:41:53;4.15;;;1.30;;
70106;SDS011;57473;37.508;15.080;2023-03-05T04:44:20;1.70;;;1.00;;
70106;SDS011;57473;37.508;15.080;2023-03-05T04:46:49;4.63;;;1.20;;
70106;SDS011;57473;37.508;15.080;2023-03-05T04:49:16;1.70;;;1.10;;
70106;SDS011;57473;37.508;15.080;2023-03-05T04:51:43;2.40;;;1.00;;
70106;SDS011;57473;37.508;15.080;2023-03-05T04:54:11;2.30;;;1.20;;
70106;SDS011;57473;37.508;15.080;2023-03-05T04:56:38;2.05;;;1.13;;
70106;SDS011;57473;37.508;15.080;2023-03-05T04:59:05;2.35;;;1.10;;
70106;SDS011;57473;37.508;15.080;2023-03-05T05:01:33;2.25;;;1.00;;
70106;SDS011;57473;37.508;15.080;2023-03-05T05:04:01;1.30;;;0.90;;
70106;SDS011;57473;37.508;15.080;2023-03-05T05:06:28;2.40;;;1.10;;
70106;SDS011;57473;37.508;15.080;2023-03-05T05:08:55;3.17;;;1.30;;
70106;SDS011;57473;37.508;15.080;2023-03-05T05:11:23;1.92;;;1.08;;
70106;SDS011;57473;37.508;15.080;2023-03-05T05:13:50;2.63;;;1.52;;
70106;SDS011;57473;37.508;15.080;2023-03-05T05:16:18;3.70;;;1.30;;
70106;SDS011;57473;37.508;15.080;2023-03-05T05:18:45;2.80;;;1.50;;
70106;SDS011;57473;37.508;15.080;2023-03-05T05:21:13;2.63;;;1.45;;
70106;SDS011;57473;37.508;15.080;2023-03-05T05:23:41;4.03;;;1.80;;
70106;SDS011;57473;37.508;15.080;2023-03-05T05:26:13;4.90;;;2.40;;
70106;SDS011;57473;37.508;15.080;2023-03-05T05:28:41;3.97;;;2.25;;
70106;SDS011;57473;37.508;15.080;2023-03-05T05:31:09;3.15;;;1.80;;
70106;SDS011;57473;37.508;15.080;2023-03-05T05:33:39;2.78;;;1.63;;
70106;SDS011;57473;37.508;15.080;2023-03-05T05:36:08;2.13;;;1.27;;
70106;SDS011;57473;37.508;15.080;2023-03-05T05:38:38;3.40;;;1.48;;
70106;SDS011;57473;37.508;15.080;2023-03-05T05:41:10;1.70;;;1.00;;
70106;SDS011;57473;37.508;15.080;2023-03-05T05:43:38;2.58;;;1.30;;
70106;SDS011;57473;37.508;15.080;2023-03-05T05:46:07;2.35;;;1.10;;
70106;SDS011;57473;37.508;15.080;2023-03-05T05:48:37;2.65;;;1.30;;
70106;SDS011;57473;37.508;15.080;2023-03-05T05:51:08;2.15;;;1.50;;
70106;SDS011;57473;37.508;15.080;2023-03-05T05:53:46;3.17;;;1.30;;
70106;SDS011;57473;37.508;15.080;2023-03-05T05:56:14;1.65;;;1.10;;
70106;SDS011;57473;37.508;15.080;2023-03-05T05:58:42;2.83;;;1.10;;
70106;SDS011;57473;37.508;15.080;2023-03-05T06:01:20;4.78;;;1.33;;
70106;SDS011;57473;37.508;15.080;2023-03-05T06:03:50;4.72;;;1.20;;
70106;SDS011;57473;37.508;15.080;2023-03-05T06:06:18;3.17;;;1.67;;
70106;SDS011;57473;37.508;15.080;2023-03-05T06:08:47;2.65;;;1.70;;
70106;SDS011;57473;37.508;15.080;2023-03-05T06:11:15;3.58;;;1.80;;
70106;SDS011;57473;37.508;15.080;2023-03-05T06:13:45;4.15;;;1.67;;
70106;SDS011;57473;37.508;15.080;2023-03-05T06:16:14;2.47;;;1.50;;
70106;SDS011;57473;37.508;15.080;2023-03-05T06:18:43;4.13;;;2.20;;
70106;SDS011;57473;37.508;15.080;2023-03-05T06:21:12;3.00;;;1.55;;
70106;SDS011;57473;37.508;15.080;2023-03-05T06:23:41;2.20;;;1.40;;
70106;SDS011;57473;37.508;15.080;2023-03-05T06:26:10;2.63;;;1.70;;
70106;SDS011;57473;37.508;15.080;2023-03-05T06:28:39;3.72;;;1.50;;
70106;SDS011;57473;37.508;15.080;2023-03-05T06:31:08;2.95;;;1.45;;
70106;SDS011;57473;37.508;15.080;2023-03-05T06:33:38;3.20;;;1.30;;
70106;SDS011;57473;37.508;15.080;2023-03-05T06:36:07;4.45;;;1.55;;
70106;SDS011;57473;37.508;15.080;2023-03-05T06:38:36;2.90;;;1.40;;
70106;SDS011;57473;37.508;15.080;2023-03-05T06:41:05;3.13;;;1.63;;
70106;SDS011;57473;37.508;15.080;2023-03-05T06:43:35;2.80;;;1.50;;
70106;SDS011;57473;37.508;15.080;2023-03-05T06:46:08;4.95;;;2.75;;
70106;SDS011;57473;37.508;15.080;2023-03-05T06:48:39;80.32;;;28.95;;
70106;SDS011;57473;37.508;15.080;2023-03-05T06:51:15;65.57;;;26.50;;
70106;SDS011;57473;37.508;15.080;2023-03-05T06:53:47;5.78;;;3.30;;
70106;SDS011;57473;37.508;15.080;2023-03-05T06:56:15;15.73;;;6.85;;
70106;SDS011;57473;37.508;15.080;2023-03-05T06:58:44;5.47;;;3.28;;
70106;SDS011;57473;37.508;15.080;2023-03-05T07:01:14;4.57;;;2.85;;
70106;SDS011;57473;37.508;15.080;2023-03-05T07:03:42;4.57;;;2.50;;
70106;SDS011;57473;37.508;15.080;2023-03-05T07:06:10;4.65;;;2.33;;
70106;SDS011;57473;37.508;15.080;2023-03-05T07:08:39;3.53;;;2.20;;
70106;SDS011;57473;37.508;15.080;2023-03-05T07:11:17;4.03;;;2.53;;
70106;SDS011;57473;37.508;15.080;2023-03-05T07:13:46;5.82;;;2.72;;
70106;SDS011;57473;37.508;15.080;2023-03-05T07:16:24;4.75;;;2.55;;
70106;SDS011;57473;37.508;15.080;2023-03-05T07:18:53;5.22;;;3.00;;
70106;SDS011;57473;37.508;15.080;2023-03-05T07:21:23;4.95;;;3.05;;
70106;SDS011;57473;37.508;15.080;2023-03-05T07:23:56;6.45;;;3.25;;
70106;SDS011;57473;37.508;15.080;2023-03-05T07:26:25;5.13;;;2.90;;
70106;SDS011;57473;37.508;15.080;2023-03-05T07:28:53;4.43;;;2.58;;
70106;SDS011;57473;37.508;15.080;2023-03-05T07:31:22;5.00;;;2.97;;
70106;SDS011;57473;37.508;15.080;2023-03-05T07:33:53;7.63;;;3.20;;
70106;SDS011;57473;37.508;15.080;2023-03-05T07:36:20;7.03;;;3.55;;
70106;SDS011;57473;37.508;15.080;2023-03-05T07:38:48;7.07;;;3.83;;
70106;SDS011;57473;37.508;15.080;2023-03-05T07:41:16;13.23;;;6.45;;
70106;SDS011;57473;37.508;15.080;2023-03-05T07:43:46;12.02;;;5.18;;
70106;SDS011;57473;37.508;15.080;2023-03-05T07:46:15;18.90;;;10.73;;
70106;SDS011;57473;37.508;15.080;2023-03-05T07:48:45;5.22;;;2.70;;
70106;SDS011;57473;37.508;15.080;2023-03-05T07:51:14;4.22;;;2.17;;
70106;SDS011;57473;37.508;15.080;2023-03-05T07:53:44;4.80;;;2.60;;
70106;SDS011;57473;37.508;15.080;2023-03-05T07:56:31;2.63;;;1.70;;
70106;SDS011;57473;37.508;15.080;2023-03-05T07:59:04;3.80;;;1.80;;
70106;SDS011;57473;37.508;15.080;2023-03-05T08:01:34;3.80;;;1.70;;
70106;SDS011;57473;37.508;15.080;2023-03-05T08:04:03;4.60;;;1.90;;
70106;SDS011;57473;37.508;15.080;2023-03-05T08:06:31;3.90;;;2.00;;
70106;SDS011;57473;37.508;15.080;2023-03-05T08:08:58;2.78;;;1.70;;
70106;SDS011;57473;37.508;15.080;2023-03-05T08:11:26;3.35;;;1.50;;
70106;SDS011;57473;37.508;15.080;2023-03-05T08:13:55;2.88;;;1.65;;
70106;SDS011;57473;37.508;15.080;2023-03-05T08:16:25;3.90;;;1.45;;
70106;SDS011;57473;37.508;15.080;2023-03-05T08:18:54;3.30;;;1.20;;
70106;SDS011;57473;37.508;15.080;2023-03-05T08:21:24;3.05;;;1.50;;
70106;SDS011;57473;37.508;15.080;2023-03-05T08:23:55;3.45;;;1.60;;
70106;SDS011;57473;37.508;15.080;2023-03-05T08:26:24;3.78;;;1.90;;
70106;SDS011;57473;37.508;15.080;2023-03-05T08:28:54;4.28;;;1.50;;
70106;SDS011;57473;37.508;15.080;2023-03-05T08:31:22;4.25;;;1.35;;
70106;SDS011;57473;37.508;15.080;2023-03-05T08:33:53;2.25;;;1.40;;
70106;SDS011;57473;37.508;15.080;2023-03-05T08:36:24;4.60;;;1.90;;
70106;SDS011;57473;37.508;15.080;2023-03-05T08:38:51;4.18;;;1.92;;
70106;SDS011;57473;37.508;15.080;2023-03-05T08:41:19;4.35;;;2.47;;
70106;SDS011;57473;37.508;15.080;2023-03-05T08:43:47;3.47;;;2.00;;
70106;SDS011;57473;37.508;15.080;2023-03-05T08:46:14;3.25;;;1.50;;
70106;SDS011;57473;37.508;15.080;2023-03-05T08:48:42;5.05;;;1.83;;
70106;SDS011;57473;37.508;15.080;2023-03-05T08:51:11;4.13;;;1.58;;
70106;SDS011;57473;37.508;15.080;2023-03-05T08:53:41;7.18;;;2.03;;
70106;SDS011;57473;37.508;15.080;2023-03-05T08:56:09;4.78;;;2.00;;
70106;SDS011;57473;37.508;15.080;2023-03-05T08:58:37;2.67;;;1.48;;
70106;SDS011;57473;37.508;15.080;2023-03-05T09:01:05;2.03;;;1.30;;
70106;SDS011;57473;37.508;15.080;2023-03-05T09:03:33;2.22;;;1.30;;
70106;SDS011;57473;37.508;15.080;2023-03-05T09:06:02;2.65;;;1.60;;
70106;SDS011;57473;37.508;15.080;2023-03-05T09:08:31;5.95;;;2.30;;
70106;SDS011;57473;37.508;15.080;2023-03-05T09:11:02;6.53;;;3.00;;
70106;SDS011;57473;37.508;15.080;2023-03-05T09:13:32;7.28;;;3.85;;
70106;SDS011;57473;37.508;15.080;2023-03-05T09:16:01;5.82;;;2.70;;
70106;SDS011;57473;37.508;15.080;2023-03-05T09:18:35;5.72;;;2.55;;
70106;SDS011;57473;37.508;15.080;2023-03-05T09:21:13;5.95;;;2.38;;
70106;SDS011;57473;37.508;15.080;2023-03-05T09:23:42;3.97;;;2.20;;
70106;SDS011;57473;37.508;15.080;2023-03-05T09:26:10;3.42;;;2.60;;
70106;SDS011;57473;37.508;15.080;2023-03-05T09:28:39;6.82;;;3.33;;
70106;SDS011;57473;37.508;15.080;2023-03-05T09:31:07;16.55;;;10.18;;
70106;SDS011;57473;37.508;15.080;2023-03-05T09:33:35;5.05;;;2.72;;
70106;SDS011;57473;37.508;15.080;2023-03-05T09:36:03;4.93;;;2.83;;
70106;SDS011;57473;37.508;15.080;2023-03-05T09:38:39;3.80;;;2.20;;
70106;SDS011;57473;37.508;15.080;2023-03-05T09:41:13;2.78;;;1.83;;
70106;SDS011;57473;37.508;15.080;2023-03-05T09:50:46;8.40;;;5.63;;
70106;SDS011;57473;37.508;15.080;2023-03-05T09:56:01;12.35;;;5.43;;
70106;SDS011;57473;37.508;15.080;2023-03-05T09:58:38;5.13;;;2.28;;
70106;SDS011;57473;37.508;15.080;2023-03-05T10:06:55;13.13;;;6.78;;
70106;SDS011;57473;37.508;15.080;2023-03-05T10:15:20;16.90;;;8.05;;
70106;SDS011;57473;37.508;15.080;2023-03-05T10:20:52;131.93;;;73.00;;
70106;SDS011;57473;37.508;15.080;2023-03-05T10:29:12;6.28;;;3.42;;
70106;SDS011;57473;37.508;15.080;2023-03-05T10:32:05;14.52;;;7.22;;
70106;SDS011;57473;37.508;15.080;2023-03-05T10:40:39;32.00;;;14.75;;
70106;SDS011;57473;37.508;15.080;2023-03-05T10:45:58;56.90;;;27.02;;
70106;SDS011;57473;37.508;15.080;2023-03-05T10:51:19;325.20;;;168.57;;
70106;SDS011;57473;37.508;15.080;2023-03-05T10:53:57;7.30;;;3.55;;
70106;SDS011;57473;37.508;15.080;2023-03-05T10:56:29;168.13;;;92.07;;
70106;SDS011;57473;37.508;15.080;2023-03-05T10:58:57;141.45;;;81.78;;
70106;SDS011;57473;37.508;15.080;2023-03-05T11:01:25;186.80;;;111.75;;
70106;SDS011;57473;37.508;15.080;2023-03-05T11:04:01;62.15;;;29.35;;
70106;SDS011;57473;37.508;15.080;2023-03-05T11:06:40;44.67;;;24.30;;
70106;SDS011;57473;37.508;15.080;2023-03-05T11:09:24;57.35;;;28.67;;
70106;SDS011;57473;37.508;15.080;2023-03-05T11:12:02;113.25;;;59.92;;
70106;SDS011;57473;37.508;15.080;2023-03-05T11:17:37;54.75;;;32.05;;
70106;SDS011;57473;37.508;15.080;2023-03-05T11:20:22;20.20;;;8.55;;
70106;SDS011;57473;37.508;15.080;2023-03-05T11:28:22;28.65;;;13.75;;
70106;SDS011;57473;37.508;15.080;2023-03-05T11:33:54;37.08;;;19.08;;
70106;SDS011;57473;37.508;15.080;2023-03-05T11:36:36;137.98;;;74.45;;
70106;SDS011;57473;37.508;15.080;2023-03-05T11:41:38;39.95;;;20.75;;
70106;SDS011;57473;37.508;15.080;2023-03-05T11:44:15;38.15;;;22.63;;
70106;SDS011;57473;37.508;15.080;2023-03-05T11:46:55;19.05;;;9.90;;
70106;SDS011;57473;37.508;15.080;2023-03-05T11:49:27;16.55;;;8.07;;
70106;SDS011;57473;37.508;15.080;2023-03-05T11:52:06;19.90;;;11.63;;
70106;SDS011;57473;37.508;15.080;2023-03-05T11:57:28;14.93;;;7.82;;
70106;SDS011;57473;37.508;15.080;2023-03-05T12:00:06;281.25;;;160.07;;
70106;SDS011;57473;37.508;15.080;2023-03-05T12:02:41;341.98;;;154.82;;
70106;SDS011;57473;37.508;15.080;2023-03-05T12:05:13;561.55;;;222.88;;
70106;SDS011;57473;37.508;15.080;2023-03-05T12:07:41;418.95;;;187.07;;
70106;SDS011;57473;37.508;15.080;2023-03-05T12:10:15;265.10;;;127.75;;
70106;SDS011;57473;37.508;15.080;2023-03-05T12:13:04;204.32;;;103.13;;
70106;SDS011;57473;37.508;15.080;2023-03-05T12:16:01;335.67;;;192.55;;
70106;SDS011;57473;37.508;15.080;2023-03-05T12:18:41;414.77;;;148.13;;
70106;SDS011;57473;37.508;15.080;2023-03-05T12:21:21;111.47;;;62.97;;
70106;SDS011;57473;37.508;15.080;2023-03-05T12:35:28;26.90;;;16.48;;
70106;SDS011;57473;37.508;15.080;2023-03-05T12:38:16;34.35;;;20.00;;
70106;SDS011;57473;37.508;15.080;2023-03-05T12:51:46;144.48;;;95.00;;
70106;SDS011;57473;37.508;15.080;2023-03-05T12:56:52;408.73;;;275.23;;
70106;SDS011;57473;37.508;15.080;2023-03-05T12:59:23;220.55;;;154.63;;
70106;SDS011;57473;37.508;15.080;2023-03-05T13:01:56;19.98;;;11.98;;
70106;SDS011;57473;37.508;15.080;2023-03-05T13:04:28;206.60;;;125.93;;
70106;SDS011;57473;37.508;15.080;2023-03-05T13:07:01;12.93;;;7.30;;
70106;SDS011;57473;37.508;15.080;2023-03-05T13:09:31;51.67;;;30.08;;
70106;SDS011;57473;37.508;15.080;2023-03-05T13:12:02;32.13;;;19.38;;
70106;SDS011;57473;37.508;15.080;2023-03-05T13:14:40;38.38;;;20.58;;
70106;SDS011;57473;37.508;15.080;2023-03-05T13:17:25;87.13;;;46.47;;
70106;SDS011;57473;37.508;15.080;2023-03-05T13:20:00;162.50;;;97.75;;
70106;SDS011;57473;37.508;15.080;2023-03-05T13:22:33;129.65;;;79.07;;
70106;SDS011;57473;37.508;15.080;2023-03-05T13:25:18;77.00;;;43.28;;
70106;SDS011;57473;37.508;15.080;2023-03-05T13:27:46;22.58;;;12.35;;
70106;SDS011;57473;37.508;15.080;2023-03-05T13:30:21;25.48;;;14.10;;
70106;SDS011;57473;37.508;15.080;2023-03-05T13:32:51;45.72;;;23.40;;
70106;SDS011;57473;37.508;15.080;2023-03-05T13:35:20;75.07;;;39.63;;
70106;SDS011;57473;37.508;15.080;2023-03-05T13:37:48;116.38;;;71.13;;
70106;SDS011;57473;37.508;15.080;2023-03-05T13:40:23;109.60;;;60.53;;
70106;SDS011;57473;37.508;15.080;2023-03-05T13:42:53;24.27;;;12.73;;
70106;SDS011;57473;37.508;15.080;2023-03-05T13:45:31;34.40;;;17.30;;
70106;SDS011;57473;37.508;15.080;2023-03-05T13:50:28;260.05;;;138.50;;
70106;SDS011;57473;37.508;15.080;2023-03-05T13:53:21;409.95;;;247.20;;
70106;SDS011;57473;37.508;15.080;2023-03-05T13:55:46;104.78;;;53.80;;
70106;SDS011;57473;37.508;15.080;2023-03-05T14:01:24;259.15;;;158.18;;
70106;SDS011;57473;37.508;15.080;2023-03-05T14:04:39;139.88;;;81.03;;
70106;SDS011;57473;37.508;15.080;2023-03-05T14:06:58;226.43;;;128.18;;
70106;SDS011;57473;37.508;15.080;2023-03-05T14:12:18;133.93;;;72.78;;
70106;SDS011;57473;37.508;15.080;2023-03-05T14:17:50;59.92;;;33.35;;
70106;SDS011;57473;37.508;15.080;2023-03-05T14:22:56;12.60;;;6.57;;
70106;SDS011;57473;37.508;15.080;2023-03-05T14:25:27;24.48;;;12.50;;
70106;SDS011;57473;37.508;15.080;2023-03-05T14:28:15;34.90;;;20.15;;
70106;SDS011;57473;37.508;15.080;2023-03-05T14:30:52;31.92;;;16.88;;
70106;SDS011;57473;37.508;15.080;2023-03-05T14:33:22;18.38;;;9.27;;
70106;SDS011;57473;37.508;15.080;2023-03-05T14:35:58;35.80;;;21.05;;
70106;SDS011;57473;37.508;15.080;2023-03-05T14:38:27;30.65;;;18.35;;
70106;SDS011;57473;37.508;15.080;2023-03-05T14:46:34;7.63;;;3.78;;
70106;SDS011;57473;37.508;15.080;2023-03-05T14:49:02;11.70;;;5.63;;
70106;SDS011;57473;37.508;15.080;2023-03-05T14:51:30;11.98;;;5.88;;
70106;SDS011;57473;37.508;15.080;2023-03-05T14:54:00;2.95;;;1.90;;
70106;SDS011;57473;37.508;15.080;2023-03-05T14:56:28;11.73;;;5.75;;
70106;SDS011;57473;37.508;15.080;2023-03-05T14:58:55;14.55;;;8.00;;
70106;SDS011;57473;37.508;15.080;2023-03-05T15:01:25;30.95;;;15.73;;
70106;SDS011;57473;37.508;15.080;2023-03-05T15:03:53;54.97;;;28.90;;
70106;SDS011;57473;37.508;15.080;2023-03-05T15:06:23;16.73;;;9.20;;
70106;SDS011;57473;37.508;15.080;2023-03-05T15:08:58;25.95;;;13.52;;
70106;SDS011;57473;37.508;15.080;2023-03-05T15:11:29;14.57;;;8.23;;
70106;SDS011;57473;37.508;15.080;2023-03-05T15:13:57;12.27;;;7.97;;
70106;SDS011;57473;37.508;15.080;2023-03-05T15:16:24;75.50;;;40.95;;
70106;SDS011;57473;37.508;15.080;2023-03-05T15:18:51;26.58;;;15.00;;
70106;SDS011;57473;37.508;15.080;2023-03-05T15:21:19;21.95;;;10.75;;
70106;SDS011;57473;37.508;15.080;2023-03-05T15:23:46;97.15;;;54.45;;
70106;SDS011;57473;37.508;15.080;2023-03-05T15:26:13;22.92;;;11.82;;
70106;SDS011;57473;37.508;15.080;2023-03-05T15:28:42;73.57;;;44.55;;
70106;SDS011;57473;37.508;15.080;2023-03-05T15:31:09;19.80;;;10.75;;
70106;SDS011;57473;37.508;15.080;2023-03-05T15:33:37;53.83;;;29.17;;
70106;SDS011;57473;37.508;15.080;2023-03-05T15:36:05;10.07;;;5.30;;
70106;SDS011;57473;37.508;15.080;2023-03-05T15:38:33;38.85;;;22.25;;
70106;SDS011;57473;37.508;15.080;2023-03-05T15:41:00;6.45;;;3.53;;
70106;SDS011;57473;37.508;15.080;2023-03-05T15:43:27;11.88;;;5.50;;
70106;SDS011;57473;37.508;15.080;2023-03-05T15:45:56;10.05;;;4.53;;
70106;SDS011;57473;37.508;15.080;2023-03-05T15:48:23;6.80;;;2.80;;
70106;SDS011;57473;37.508;15.080;2023-03-05T15:50:50;14.88;;;6.03;;
70106;SDS011;57473;37.508;15.080;2023-03-05T15:53:18;10.73;;;7.10;;
70106;SDS011;57473;37.508;15.080;2023-03-05T15:55:47;6.88;;;3.13;;
70106;SDS011;57473;37.508;15.080;2023-03-05T15:58:14;9.40;;;4.70;;
70106;SDS011;57473;37.508;15.080;2023-03-05T16:00:43;11.00;;;5.47;;
70106;SDS011;57473;37.508;15.080;2023-03-05T16:03:13;9.80;;;5.30;;
70106;SDS011;57473;37.508;15.080;2023-03-05T16:05:41;15.70;;;8.80;;
70106;SDS011;57473;37.508;15.080;2023-03-05T16:08:08;9.07;;;4.15;;
70106;SDS011;57473;37.508;15.080;2023-03-05T16:10:36;8.88;;;3.05;;
70106;SDS011;57473;37.508;15.080;2023-03-05T16:13:07;24.45;;;12.65;;
70106;SDS011;57473;37.508;15.080;2023-03-05T16:15:37;63.83;;;27.95;;
70106;SDS011;57473;37.508;15.080;2023-03-05T16:18:07;71.90;;;34.40;;
70106;SDS011;57473;37.508;15.080;2023-03-05T16:20:37;5.75;;;2.63;;
70106;SDS011;57473;37.508;15.080;2023-03-05T16:23:05;102.63;;;45.17;;
70106;SDS011;57473;37.508;15.080;2023-03-05T16:25:32;118.97;;;57.13;;
70106;SDS011;57473;37.508;15.080;2023-03-05T16:28:00;17.88;;;10.32;;
70106;SDS011;57473;37.508;15.080;2023-03-05T16:30:27;3.88;;;2.17;;
70106;SDS011;57473;37.508;15.080;2023-03-05T16:32:55;8.80;;;4.47;;
70106;SDS011;57473;37.508;15.080;2023-03-05T16:35:23;3.33;;;2.15;;